Current | Forecast
Updated: 10:00 AM JST on April 23, 2018
Observed at Tokyo Heliport, Japan
Temperature 61°F
Humidity 77%
Dew Point 54°F
Wind NE at 12 mph
Pressure 30.18 in (Steady)
Conditions Mostly Cloudy
Visibility 5.0 miles
UV 5 out of 16
Clouds (FEW) : 1000 ft
Mostly Cloudy (BKN) : 1500 ft
Mostly Cloudy (BKN) : 3000 ft
Yesterday's Maximum 75°F
Yesterday's Minimum 66°F approx.
Yesterday's Cooling Degree Days 6 approx.
Sunrise4:57 AM JST
Sunset6:18 PM JST
Moon Rise11:11 AM JST
Moon Set12:37 AM JST
Moon PhaseMoon Phase
First Quarter
Raw METARMETAR RJTI 230100Z 05010KT 020V100 8000 FEW010 BKN015 BKN030 16/12 Q1022


Monday
. High: 77° F.
Tuesday
. High: 77° F.
Wednesday
. High: 68° F.
Thursday
. High: 77° F.
Friday
. High: 75° F.
Saturday
. High: 78° F.
Sunday
. High: 77° F.
Monday
. High: 75° F.

Units: English | Metric

Find the Weather for any City, State or Zipcode, or Country:

U.S. State List | Severe Weather | Tropical Storms | Ski Conditions
United States | Canada | Central America | South America | Asia | Europe | Australia | Africa | Islands

Weather Underground

© Copyright 2018
The Weather Company, LLC